Etusivu
METAR-TAF:

METAR-TAF

Lentoasemat :

Habarovskin lentoasema

Habarovsk, Venäjä

Leveyspiiri: 48-31N, Pituuspiiri: 135-10E, korkeus merenpinnasta: 72 m

Tämänhetkinen sää

Tämä raportti tehtiin 21 minuuttia sitten, kello 19.00 UTC
Tuuli 12 kn lännestä
Lämpötila 17°C
Kosteus 48%
Ilmanpaine 1003 hPa
Näkyvyys 10 km tai enemmän
ei pilviä alle 1500 m:ssä eikä cumulonimbus-pilviä

METAR: UHHH 281900Z 26006MPS CAVOK 17/06 Q1003 R23L/090060 NOSIG RMK QFE746/0995

Aika: 05:21 (19:21 UTC)

Sääennuste

Tämä raportti tehtiin 2 tuntia ja 35 minuuttia sitten, kello 16.46 UTC
Ennuste voimassa 28. päivästä klo 18 UTC - 29. päivään klo 24 UTC
Tuuli 14 kn lännestä
Näkyvyys 10 km tai enemmän
ei pilviä alle 1500 m:ssä eikä cumulonimbus-pilviä
Ajoittain
28. päivästä klo 18 UTC - 29. päivään klo 10 UTC
Tuuli 14 kn lännestä puuskistuen 23 kn:hen

TAF: UHHH 281646Z 2818/2924 26007MPS CAVOK TEMPO 2818/2910 26007G12MPS

Säähavainnot ja -ennusteet yli 4000 lentoasemalta (METAR- ja TAF-raportit).

Käytössä olevat sääasemat on merkitty karttaan keltaisilla ja punaisilla pisteillä.

Aseta hiiri pisteen päälle nähdäksesi sääaseman nimen.

Klikkaa sitten nähdäksesi säähavainnot ja -ennusteet.

Kartan vaihtaminen: klikkaa mustalla rastilla varustettuja vihreitä pisteitä, niin voit zoomata sisään; viivalla varustettua vihreää pistettä, niin voit zoomata ulos tai vihreitä nuolia, niin pääset viereisille kartoille.


METAR-TAF: